Time;durP1;ratioP1;P1;durP2;ratioP2;P2;SDS_P1;SDS_P2;PMS_P1;PMS_P2;Temp;Humidity;BMP_temperature;BMP_pressure;BME280_temperature;BME280_humidity;BME280_pressure;Samples;Min_cycle;Max_cycle;Signal;HPM_P1;HPM_P2
2022/08/11 00:00:42;;;;;;;10.63;3.20;;;;;;;16.62;78.46;101435.98;1748634;82;27408;-53
2022/08/11 00:03:12;;;;;;;4.12;3.10;;;;;;;16.68;78.33;101442.65;1755972;80;25664;-54
2022/08/11 00:05:47;;;;;;;5.90;3.17;;;;;;;16.68;78.18;101443.48;1757010;80;25483;-53
2022/08/11 00:08:24;;;;;;;10.72;3.50;;;;;;;16.66;77.57;101437.88;1746621;80;25917;-54
2022/08/11 00:11:01;;;;;;;11.22;3.17;;;;;;;16.55;77.41;101430.86;1750433;81;26066;-54
2022/08/11 00:13:44;;;;;;;8.00;3.20;;;;;;;16.56;77.67;101425.77;1745770;81;27714;-54
2022/08/11 00:16:18;;;;;;;7.50;3.47;;;;;;;16.48;76.97;101427.91;1761862;80;26021;-54
2022/08/11 00:18:49;;;;;;;9.13;3.30;;;;;;;16.26;76.83;101419.78;1761590;80;25767;-54
2022/08/11 00:21:19;;;;;;;8.60;3.50;;;;;;;16.15;77.28;101426.32;1762097;80;25903;-54
2022/08/11 00:23:56;;;;;;;10.38;3.35;;;;;;;16.07;77.71;101427.61;1759417;80;25776;-52
2022/08/11 00:26:26;;;;;;;5.60;3.10;;;;;;;16.07;78.19;101434.39;1746512;81;28298;-52
2022/08/11 00:28:54;;;;;;;8.93;3.67;;;;;;;16.07;78.31;101428.97;1746650;82;26157;-53
2022/08/11 00:31:28;;;;;;;5.03;3.10;;;;;;;16.07;78.26;101437.95;1747703;80;25721;-54
2022/08/11 00:33:58;;;;;;;5.12;2.95;;;;;;;16.08;78.45;101434.75;1745984;80;26635;-55
2022/08/11 00:36:38;;;;;;;7.90;3.12;;;;;;;15.95;78.73;101431.91;1799372;79;25768;-54
2022/08/11 00:39:09;;;;;;;6.37;3.10;;;;;;;15.84;79.07;101433.49;1799686;79;27626;-53
2022/08/11 00:42:31;;;;;;;4.67;3.25;;;;;;;15.73;79.19;101428.28;1799519;79;25497;-53
2022/08/11 00:45:12;;;;;;;5.25;3.50;;;;;;;15.70;80.04;101434.84;1799507;79;25747;-53
2022/08/11 00:48:14;;;;;;;6.37;3.70;;;;;;;15.76;79.55;101438.81;1781602;80;26733;-53
2022/08/11 00:51:14;;;;;;;5.53;3.47;;;;;;;15.78;79.52;101434.09;1783034;79;25763;-54
2022/08/11 00:54:14;;;;;;;5.70;3.30;;;;;;;15.82;79.48;101432.79;1789773;78;27445;-53
2022/08/11 00:57:15;;;;;;;3.33;2.95;;;;;;;15.84;79.50;101439.44;1773247;80;25423;-53
2022/08/11 01:00:08;;;;;;;6.50;3.70;;;;;;;15.78;79.54;101434.09;1773242;80;25688;-53
2022/08/11 01:03:06;;;;;;;5.00;3.25;;;;;;;15.78;80.04;101440.35;1740907;82;25877;-54
2022/08/11 01:06:15;;;;;;;5.95;3.35;;;;;;;15.78;79.98;101438.16;1749097;80;25792;-53
2022/08/11 01:09:38;;;;;;;6.55;3.15;;;;;;;15.72;80.10;101445.56;1739140;81;27492;-53
2022/08/11 01:12:36;;;;;;;6.00;3.40;;;;;;;15.68;80.15;101449.09;1799566;79;25663;-53
2022/08/11 01:15:25;;;;;;;14.90;4.67;;;;;;;15.76;80.44;101438.32;1793947;79;25654;-53
2022/08/11 01:18:09;;;;;;;5.22;3.15;;;;;;;15.87;80.52;101439.98;1775928;79;26611;-52
2022/08/11 01:21:23;;;;;;;9.73;3.27;;;;;;;15.94;80.29;101435.62;1754530;78;25856;-52
2022/08/11 01:24:36;;;;;;;9.30;3.52;;;;;;;16.03;80.10;101431.63;1790323;79;27448;-54
2022/08/11 01:27:38;;;;;;;5.72;3.33;;;;;;;16.08;79.93;101432.88;1801111;78;25710;-53
2022/08/11 01:30:11;;;;;;;7.42;3.95;;;;;;;16.05;79.48;101435.89;1769964;80;25814;-53
2022/08/11 01:33:09;;;;;;;5.87;3.55;;;;;;;15.81;79.86;101431.08;1771153;79;34711;-53
2022/08/11 01:35:57;;;;;;;4.92;3.37;;;;;;;15.62;80.67;101430.21;1739891;82;25432;-54
2022/08/11 01:38:48;;;;;;;12.93;3.87;;;;;;;15.48;81.37;101433.42;1736597;81;27486;-53
2022/08/11 01:45:09;;;;;;;6.15;3.20;;;;;;;15.40;81.80;101426.55;1808735;78;25758;-53
2022/08/11 01:47:49;;;;;;;9.50;3.33;;;;;;;15.39;81.82;101424.36;1794337;79;26053;-52
2022/08/11 01:50:36;;;;;;;9.13;3.95;;;;;;;15.39;82.29;101419.42;1782880;78;25815;-53
2022/08/11 01:53:41;;;;;;;5.58;3.45;;;;;;;15.34;82.85;101419.39;1737102;80;27459;-55
2022/08/11 01:56:56;;;;;;;11.73;4.08;;;;;;;15.27;83.73;101421.02;1718616;79;25506;-54
2022/08/11 01:59:47;;;;;;;9.48;3.20;;;;;;;15.24;83.53;101418.59;1742892;82;25795;-52
2022/08/11 02:02:46;;;;;;;5.97;3.42;;;;;;;15.23;84.13;101413.33;1718963;83;25845;-53
2022/08/11 02:05:33;;;;;;;5.55;3.35;;;;;;;15.21;85.04;101420.23;1735916;81;25628;-54
2022/08/11 02:08:20;;;;;;;8.90;3.62;;;;;;;15.17;85.05;101416.98;1746059;80;27484;-53
2022/08/11 02:11:30;;;;;;;6.33;3.20;;;;;;;15.15;85.91;101414.08;1757544;80;25775;-53
2022/08/11 02:14:12;;;;;;;6.17;3.70;;;;;;;15.09;86.80;101420.11;1717590;82;25685;-53
2022/08/11 02:17:06;;;;;;;7.92;3.72;;;;;;;15.06;86.60;101425.81;1714424;83;26001;-52
2022/08/11 02:23:38;;;;;;;5.20;3.33;;;;;;;15.01;87.17;101425.78;1682884;82;27493;-53
2022/08/11 02:26:35;;;;;;;8.40;3.52;;;;;;;14.98;87.31;101431.48;1695994;83;25777;-52
2022/08/11 02:29:30;;;;;;;5.35;3.27;;;;;;;14.94;87.79;101440.90;1696250;84;25874;-52
2022/08/11 02:35:13;;;;;;;6.17;3.10;;;;;;;14.84;88.28;101436.02;1696279;84;25887;-54
2022/08/11 02:37:51;;;;;;;5.72;3.98;;;;;;;14.83;88.93;101438.40;1708124;83;27506;-54
2022/08/11 02:40:58;;;;;;;6.67;3.60;;;;;;;14.81;89.14;101433.63;1725368;83;25521;-52
2022/08/11 02:43:33;;;;;;;9.83;3.17;;;;;;;14.80;88.52;101440.87;1725201;83;26422;-54
2022/08/11 02:46:31;;;;;;;5.85;3.58;;;;;;;14.81;88.86;101430.91;1748540;80;25823;-52
2022/08/11 02:52:05;;;;;;;7.10;3.37;;;;;;;14.84;88.55;101445.02;1737563;80;27482;-56
2022/08/11 02:55:18;;;;;;;12.20;3.80;;;;;;;14.90;88.71;101451.70;1730498;81;25827;-53
2022/08/11 02:57:59;;;;;;;4.75;2.80;;;;;;;14.88;88.59;101448.79;1702840;83;25720;-54
2022/08/11 03:00:29;;;;;;;12.60;3.35;;;;;;;14.91;88.11;101450.70;1702743;83;25717;-54
2022/08/11 03:03:15;;;;;;;6.70;3.50;;;;;;;14.97;88.50;101447.91;1702544;84;25831;-53
2022/08/11 03:06:06;;;;;;;10.03;4.30;;;;;;;15.01;88.12;101449.30;1741772;80;27663;-54
2022/08/11 03:09:00;;;;;;;10.35;5.83;;;;;;;15.14;87.98;101448.47;1777195;79;25800;-52
2022/08/11 03:17:51;;;;;;;13.70;3.45;;;;;;;15.49;86.81;101450.05;1738937;82;25727;-54
2022/08/11 03:20:35;;;;;;;7.95;4.70;;;;;;;15.58;86.38;101448.30;1798776;78;27658;-52
2022/08/11 03:23:28;;;;;;;15.93;7.15;;;;;;;15.60;85.92;101443.55;1793672;79;27222;-52
2022/08/11 03:26:03;;;;;;;10.82;4.62;;;;;;;15.66;85.84;101447.03;1806220;78;25773;-52
2022/08/11 03:29:03;;;;;;;10.90;3.83;;;;;;;15.71;85.29;101441.14;1806333;79;25810;-54
2022/08/11 03:31:35;;;;;;;8.00;3.85;;;;;;;15.68;84.65;101448.22;1806257;77;25653;-51
2022/08/11 03:34:24;;;;;;;11.78;3.50;;;;;;;15.62;84.51;101450.55;1806476;78;27336;-52
2022/08/11 03:37:05;;;;;;;9.18;3.30;;;;;;;15.58;84.33;101447.78;1806298;78;25711;-52
2022/08/11 03:39:43;;;;;;;11.08;3.72;;;;;;;15.52;84.60;101445.69;1767354;81;25709;-53
2022/08/11 03:42:31;;;;;;;7.22;3.55;;;;;;;15.48;84.71;101453.77;1767622;80;25791;-54
2022/08/11 03:45:12;;;;;;;9.68;4.08;;;;;;;15.45;84.86;101450.02;1806499;78;25501;-54
2022/08/11 03:48:03;;;;;;;8.25;3.72;;;;;;;15.38;85.08;101453.83;1805673;78;27544;-52
2022/08/11 03:50:42;;;;;;;6.58;3.37;;;;;;;15.39;85.25;101453.31;1767483;80;27273;-52
2022/08/11 03:53:51;;;;;;;9.08;3.77;;;;;;;15.51;85.38;101452.11;1806551;78;25806;-54
2022/08/11 03:56:43;;;;;;;6.58;3.65;;;;;;;15.65;85.58;101450.23;1766462;81;25840;-52
2022/08/11 03:59:31;;;;;;;6.72;4.10;;;;;;;15.80;85.11;101455.14;1806536;78;25715;-52
2022/08/11 04:02:21;;;;;;;7.95;2.90;;;;;;;15.87;84.72;101452.70;1764720;80;28233;-54
2022/08/11 04:05:10;;;;;;;12.33;3.15;;;;;;;15.89;84.41;101452.89;1794120;78;26798;-53
2022/08/11 04:08:14;;;;;;;10.43;3.27;;;;;;;15.92;84.24;101448.49;1786140;79;25620;-53
2022/08/11 04:11:33;;;;;;;6.65;3.00;;;;;;;15.99;84.23;101446.53;1789337;80;26474;-53
2022/08/11 04:18:01;;;;;;;6.25;3.08;;;;;;;16.16;84.05;101450.23;1795489;78;27563;-52
2022/08/11 04:20:48;;;;;;;8.78;3.42;;;;;;;16.25;83.99;101451.52;1798881;79;26668;-52
2022/08/11 04:24:03;;;;;;;18.77;3.15;;;;;;;16.33;83.73;101442.56;1796423;79;25750;-51
2022/08/11 04:26:57;;;;;;;5.05;2.75;;;;;;;16.43;83.85;101442.48;1782688;78;25852;-54
2022/08/11 04:29:51;;;;;;;5.28;3.30;;;;;;;16.47;83.31;101446.58;1794440;79;25811;-52
2022/08/11 04:32:32;;;;;;;5.35;3.10;;;;;;;16.53;83.34;101439.17;1794482;79;28169;-51
2022/08/11 04:35:25;;;;;;;4.87;2.90;;;;;;;16.51;82.91;101433.53;1794276;79;25746;-53
2022/08/11 04:38:32;;;;;;;4.62;3.30;;;;;;;16.54;83.21;101429.98;1794246;80;25876;-51
2022/08/11 04:43:19;;;;;;;5.30;3.15;;;;;;;16.59;83.02;101434.94;1794216;80;25865;-51
2022/08/11 04:44:47;;;;;;;8.08;3.50;;;;;;;16.57;82.87;101428.31;1789938;80;26091;-52
2022/08/11 05:03:10;;;;;;;3.17;2.65;;;;;;;16.79;82.79;101419.78;1739356;81;28364;-53
2022/08/11 05:06:15;;;;;;;3.87;2.70;;;;;;;16.84;82.65;101414.21;1721083;83;25911;-53
2022/08/11 05:08:57;;;;;;;5.42;1.92;;;;;;;16.87;82.45;101417.97;1700525;81;25690;-51
2022/08/11 05:12:00;;;;;;;5.10;2.60;;;;;;;16.90;82.13;101417.63;1724480;83;25806;-50
2022/08/11 05:34:50;;;;;;;10.93;3.62;;;;;;;17.04;81.15;101416.20;1804696;79;25721;-54
2022/08/11 05:57:24;;;;;;;8.03;2.72;;;;;;;17.51;78.73;101411.27;1767434;79;25778;-52
2022/08/11 05:59:58;;;;;;;5.17;2.85;;;;;;;17.59;78.71;101412.64;1794802;78;28397;-53
2022/08/11 06:02:27;;;;;;;10.03;2.52;;;;;;;17.70;78.07;101413.34;1765208;79;25827;-53
2022/08/11 06:05:00;;;;;;;6.25;2.80;;;;;;;17.77;77.93;101412.52;1804420;78;25826;-53
2022/08/11 06:07:32;;;;;;;11.05;2.27;;;;;;;17.80;77.70;101413.52;1801436;78;25738;-53
2022/08/11 06:09:59;;;;;;;3.72;2.42;;;;;;;17.84;76.75;101408.09;1801500;78;25705;-52
2022/08/11 06:12:31;;;;;;;5.00;2.60;;;;;;;17.90;76.85;101401.62;1798863;78;27429;-52
2022/08/11 06:15:05;;;;;;;4.60;2.20;;;;;;;17.95;76.92;101397.89;1794143;78;26123;-53
2022/08/11 06:17:37;;;;;;;4.00;2.52;;;;;;;18.06;76.41;101393.52;1802695;78;25671;-53
2022/08/11 06:20:11;;;;;;;3.75;2.27;;;;;;;18.14;76.37;101389.42;1791574;78;25794;-54
2022/08/11 06:22:40;;;;;;;5.03;2.15;;;;;;;18.27;75.56;101392.12;1801640;78;25710;-54
2022/08/11 06:25:09;;;;;;;3.65;2.10;;;;;;;18.33;74.59;101383.77;1803272;78;27479;-53
2022/08/11 06:27:38;;;;;;;7.15;2.55;;;;;;;18.38;74.65;101378.15;1806244;78;25648;-54
2022/08/11 06:30:12;;;;;;;3.55;2.05;;;;;;;18.44;74.70;101378.81;1797558;77;25814;-53
2022/08/11 06:32:37;;;;;;;3.72;2.15;;;;;;;18.49;74.89;101374.73;1825200;78;25681;-53
2022/08/11 06:35:24;;;;;;;4.22;2.27;;;;;;;18.57;74.29;101374.18;1783287;78;25866;-53
2022/08/11 06:38:06;;;;;;;7.58;2.75;;;;;;;18.66;73.35;101376.88;1783231;78;27434;-52
2022/08/11 06:41:29;;;;;;;2.80;2.17;;;;;;;18.68;73.45;101374.34;1791474;79;25754;-54
2022/08/11 06:43:22;;;;;;;8.50;2.98;;;;;;;18.73;73.60;101370.56;1785410;79;25727;-54
2022/08/11 06:46:06;;;;;;;5.90;2.22;;;;;;;18.86;73.14;101371.89;1802748;78;25815;-52
2022/08/11 06:48:35;;;;;;;4.78;2.30;;;;;;;18.92;73.44;101373.41;1800626;78;26624;-55
2022/08/11 06:51:11;;;;;;;7.60;2.40;;;;;;;19.03;73.22;101374.92;1777507;78;27455;-52
2022/08/11 06:53:58;;;;;;;10.00;2.50;;;;;;;19.12;73.08;101370.78;1797988;78;25923;-51
2022/08/11 07:02:27;;;;;;;8.30;2.40;;;;;;;19.30;71.14;101370.01;1801314;78;25749;-53
2022/08/11 07:05:12;;;;;;;5.92;2.40;;;;;;;19.39;71.15;101372.16;1814949;78;29631;-53
2022/08/11 07:17:22;;;;;;;10.05;2.70;;;;;;;19.68;69.54;101371.97;1751470;81;25824;-54
2022/08/11 07:28:56;;;;;;;11.97;3.62;;;;;;;19.80;67.88;101349.18;1767538;80;44886;-52
2022/08/11 07:31:39;;;;;;;12.98;3.25;;;;;;;19.85;66.81;101380.92;1742709;82;26283;-53
2022/08/11 07:34:26;;;;;;;4.65;2.67;;;;;;;19.84;67.27;101360.08;1769134;80;28519;-54
2022/08/11 07:36:57;;;;;;;7.35;2.60;;;;;;;19.85;67.45;101368.64;1744384;80;25716;-52
2022/08/11 07:39:32;;;;;;;9.55;2.30;;;;;;;19.88;67.21;101371.52;1818489;78;26627;-52
2022/08/11 07:42:08;;;;;;;4.05;2.35;;;;;;;19.90;67.22;101371.66;1820453;78;25949;-54
2022/08/11 07:48:10;;;;;;;3.42;2.30;;;;;;;19.96;66.61;101374.17;1797040;78;25731;-52
2022/08/11 07:52:40;;;;;;;3.25;2.20;;;;;;;20.22;65.59;101366.92;1820104;78;25710;-54
2022/08/11 07:55:15;;;;;;;4.83;2.47;;;;;;;20.45;65.92;101375.59;1787801;78;26740;-55
2022/08/11 08:20:13;;;;;;;6.92;2.40;;;;;;;22.06;59.79;101359.72;1802631;79;25459;-54
2022/08/11 08:22:41;;;;;;;5.78;2.17;;;;;;;22.32;59.65;101356.31;1774461;79;25945;-54
2022/08/11 08:25:09;;;;;;;2.87;1.90;;;;;;;22.49;58.17;101354.69;1767538;79;25672;-52
2022/08/11 08:27:38;;;;;;;4.70;2.45;;;;;;;22.64;57.42;101351.80;1786655;79;27447;-53
2022/08/11 08:32:57;;;;;;;8.33;1.70;;;;;;;22.89;56.36;101352.68;1727119;80;25817;-54
2022/08/11 08:35:25;;;;;;;9.25;1.98;;;;;;;23.07;56.34;101350.73;1728050;82;25873;-54
2022/08/11 08:37:53;;;;;;;2.27;1.80;;;;;;;23.12;56.32;101353.19;1711586;83;25843;-54
2022/08/11 08:40:20;;;;;;;5.30;1.72;;;;;;;23.15;55.55;101349.17;1711929;83;28406;-53
2022/08/11 08:42:55;;;;;;;4.97;1.98;;;;;;;23.26;56.07;101345.05;1711800;83;25777;-54
2022/08/11 08:45:24;;;;;;;6.35;2.08;;;;;;;23.30;54.96;101346.30;1733945;81;25849;-54
2022/08/11 08:48:04;;;;;;;3.17;1.87;;;;;;;23.32;55.79;101344.71;1738571;81;25901;-54
2022/08/11 08:53:30;;;;;;;6.80;3.35;;;;;;;23.78;55.38;101343.12;1736655;80;29588;-53
2022/08/11 08:56:03;;;;;;;10.75;8.48;;;;;;;24.06;53.17;101336.06;1727953;81;25754;-54
2022/08/11 08:58:33;;;;;;;5.40;1.75;;;;;;;24.24;52.84;101331.30;1723853;81;25825;-53
2022/08/11 09:01:00;;;;;;;4.58;1.42;;;;;;;24.52;52.32;101329.64;1720789;81;26940;-54
2022/08/11 09:03:28;;;;;;;2.20;1.50;;;;;;;24.77;51.86;101326.20;1755879;79;25806;-55
2022/08/11 09:05:57;;;;;;;3.35;1.70;;;;;;;24.97;49.76;101322.52;1807958;79;27380;-54
2022/08/11 09:08:28;;;;;;;5.67;1.40;;;;;;;25.07;49.70;101317.91;1803283;77;25828;-54
2022/08/11 09:13:44;;;;;;;6.95;1.50;;;;;;;25.43;48.45;101317.31;1802258;79;26505;-53
2022/08/11 09:16:12;;;;;;;1.55;1.20;;;;;;;25.52;48.89;101317.04;1810111;79;25458;-55
2022/08/11 09:18:45;;;;;;;5.62;1.67;;;;;;;25.63;47.39;101310.27;1810074;79;28347;-54
2022/08/11 09:21:15;;;;;;;3.47;1.60;;;;;;;25.72;47.18;101316.37;1809935;79;25489;-53
2022/08/11 09:29:14;;;;;;;5.80;1.42;;;;;;;25.69;46.84;101307.67;1811668;79;25706;-55
2022/08/11 09:31:43;;;;;;;2.67;1.37;;;;;;;26.16;45.38;101311.45;1811794;77;27308;-54
2022/08/11 09:34:13;;;;;;;9.05;1.50;;;;;;;26.08;45.07;101294.13;1811672;78;25914;-54
2022/08/11 09:42:20;;;;;;;2.98;1.30;;;;;;;26.42;44.77;101299.82;1811776;79;25778;-53
2022/08/11 09:44:48;;;;;;;2.47;1.50;;;;;;;26.29;45.28;101298.05;1811756;77;27449;-52
2022/08/11 09:47:28;;;;;;;2.30;1.75;;;;;;;26.71;44.24;101294.91;1810209;79;25810;-54
2022/08/11 09:49:59;;;;;;;1.92;1.40;;;;;;;27.12;43.41;101292.45;1788487;77;25771;-54
2022/08/11 09:52:31;;;;;;;2.45;1.72;;;;;;;27.26;43.81;101299.19;1742650;82;25748;-54
2022/08/11 09:55:00;;;;;;;2.90;1.32;;;;;;;27.34;43.47;101294.15;1742309;82;25715;-53
2022/08/11 10:00:15;;;;;;;3.42;1.57;;;;;;;29.01;40.74;101299.11;1742238;82;25735;-55
2022/08/11 10:02:48;;;;;;;2.80;1.50;;;;;;;29.67;38.71;101285.36;1742612;82;25787;-53
2022/08/11 10:08:05;;;;;;;4.00;1.32;;;;;;;30.31;37.56;101286.86;1779218;78;25763;-55
2022/08/11 10:10:39;;;;;;;7.05;1.47;;;;;;;29.90;37.09;101280.70;1786424;79;27458;-53
2022/08/11 10:13:16;;;;;;;4.05;1.30;;;;;;;29.31;37.83;101283.33;1786327;80;25710;-52
2022/08/11 10:15:45;;;;;;;3.45;1.60;;;;;;;28.73;38.86;101282.78;1786399;80;26526;-54
2022/08/11 10:21:13;;;;;;;5.33;1.13;;;;;;;28.98;38.92;101283.53;1786504;80;25676;-55
2022/08/11 10:34:51;;;;;;;6.22;1.65;;;;;;;28.17;39.00;101289.86;1723816;83;25795;-53
2022/08/11 10:37:23;;;;;;;2.17;1.95;;;;;;;27.69;39.94;101292.58;1734161;80;27472;-54
2022/08/11 10:39:51;;;;;;;4.45;1.62;;;;;;;27.47;39.99;101290.40;1731846;82;25835;-54
2022/08/11 10:47:33;;;;;;;7.28;1.50;;;;;;;27.13;41.01;101287.80;1734206;80;26173;-53
2022/08/11 10:47:38;;;;;;;5.58;1.37;;;;;;;27.65;40.97;101281.72;1727168;82;25812;-53
2022/08/11 10:58:48;;;;;;;2.83;1.50;;;;;;;30.50;35.75;101259.66;1731689;82;25805;-54
2022/08/11 11:01:25;;;;;;;5.08;2.00;;;;;;;29.93;35.62;101269.97;1731512;82;25807;-54
2022/08/11 11:04:10;;;;;;;3.55;1.02;;;;;;;29.36;35.94;101261.27;1731641;82;28333;-54
2022/08/11 11:07:03;;;;;;;11.70;1.47;;;;;;;28.79;37.07;101262.96;1731509;82;26257;-53
2022/08/11 11:09:45;;;;;;;3.00;1.20;;;;;;;28.21;38.19;101263.39;1753905;81;33036;-54
2022/08/11 11:18:11;;;;;;;4.72;1.20;;;;;;;27.52;39.06;101263.44;1803076;79;27551;-53
2022/08/11 11:20:48;;;;;;;2.12;1.07;;;;;;;28.32;39.19;101247.88;1806457;77;26136;-53
2022/08/11 11:23:55;;;;;;;3.22;1.20;;;;;;;28.89;38.16;101242.95;1841602;77;25851;-54
2022/08/11 11:26:40;;;;;;;3.12;1.20;;;;;;;29.02;37.75;101245.97;1806460;79;27885;-53
2022/08/11 11:29:27;;;;;;;3.42;1.15;;;;;;;28.94;37.99;101248.58;1806377;79;25735;-54
2022/08/11 11:32:17;;;;;;;9.45;1.27;;;;;;;29.14;36.13;101241.73;1806397;79;27312;-53
2022/08/11 11:35:30;;;;;;;8.33;1.57;;;;;;;28.79;35.59;101238.05;1806466;79;25760;-54
2022/08/11 11:38:00;;;;;;;6.50;1.60;;;;;;;28.97;35.81;101240.31;1800972;79;25454;-53
2022/08/11 11:40:28;;;;;;;5.70;1.60;;;;;;;29.97;35.37;101239.80;1806509;78;25819;-51
2022/08/11 11:42:58;;;;;;;1.42;1.12;;;;;;;30.26;33.68;101232.14;1806577;78;25490;-54
2022/08/11 11:45:26;;;;;;;7.37;1.40;;;;;;;29.88;33.48;101234.36;1802481;78;28597;-54
2022/08/11 11:47:57;;;;;;;3.17;1.77;;;;;;;29.40;34.79;101235.28;1761798;81;25781;-54
2022/08/11 11:50:33;;;;;;;2.15;1.27;;;;;;;29.61;35.17;101234.53;1761760;80;25845;-55
2022/08/11 11:53:04;;;;;;;5.40;1.07;;;;;;;30.51;33.83;101234.11;1762009;80;26425;-53
2022/08/11 11:55:32;;;;;;;9.25;3.87;;;;;;;31.61;33.16;101232.14;1761916;80;25464;-55
2022/08/11 12:03:36;;;;;;;9.75;1.45;;;;;;;31.38;30.36;101223.09;1761799;81;25787;-54
2022/08/11 12:06:04;;;;;;;12.95;3.77;;;;;;;30.39;32.01;101228.13;1761947;81;26697;-55
2022/08/11 12:08:32;;;;;;;6.42;2.17;;;;;;;29.81;32.47;101222.05;1788885;77;25695;-55
2022/08/11 12:13:51;;;;;;;6.42;1.50;;;;;;;29.73;32.57;101223.34;1814047;78;25829;-54
2022/08/11 12:16:21;;;;;;;7.67;0.98;;;;;;;29.49;32.81;101222.16;1806152;79;25739;-55
2022/08/11 12:18:58;;;;;;;4.30;1.77;;;;;;;30.20;31.88;101219.86;1805823;79;26566;-55
2022/08/11 12:21:28;;;;;;;10.40;1.20;;;;;;;30.31;31.42;101214.71;1805845;78;25754;-55
2022/08/11 12:29:19;;;;;;;4.60;1.05;;;;;;;31.91;29.68;101213.48;1817289;78;25699;-54
2022/08/11 12:31:47;;;;;;;2.10;0.93;;;;;;;32.73;29.83;101213.52;1767326;80;26765;-55
2022/08/11 12:34:16;;;;;;;3.40;1.12;;;;;;;33.60;28.39;101197.44;1763050;81;25793;-55
2022/08/11 12:36:51;;;;;;;3.02;1.45;;;;;;;34.60;26.81;101197.66;1729278;82;27376;-53
2022/08/11 12:45:26;;;;;;;3.70;1.02;;;;;;;34.39;26.12;101205.88;1729505;82;25732;-55
2022/08/11 12:51:55;;;;;;;13.05;1.20;;;;;;;35.76;25.17;101187.49;1752125;81;26254;-54
2022/08/11 12:52:45;;;;;;;2.95;0.90;;;;;;;36.64;23.30;101183.59;1753651;81;27229;-55
2022/08/11 12:58:14;;;;;;;1.87;0.70;;;;;;;36.84;22.87;101192.28;1747315;81;25728;-56
2022/08/11 13:06:08;;;;;;;3.62;0.90;;;;;;;38.66;20.16;101184.30;1803841;79;26035;-55
2022/08/11 13:08:38;;;;;;;4.22;0.78;;;;;;;38.89;19.81;101173.09;1769255;79;25723;-55
2022/08/11 13:13:57;;;;;;;1.87;0.80;;;;;;;38.62;19.72;101180.45;1772480;80;25791;-55
2022/08/11 13:17:19;;;;;;;9.18;1.22;;;;;;;38.19;20.84;101183.66;1771019;81;27538;-54
2022/08/11 13:19:03;;;;;;;1.05;0.80;;;;;;;38.66;20.34;101172.22;1767707;81;25715;-55
2022/08/11 13:21:31;;;;;;;4.85;0.80;;;;;;;38.86;20.06;101175.16;1771157;81;25786;-55
2022/08/11 13:24:01;;;;;;;5.12;0.70;;;;;;;39.09;20.73;101173.72;1769692;80;25839;-55
2022/08/11 13:26:31;;;;;;;3.92;0.82;;;;;;;39.56;19.22;101176.99;1736448;82;25831;-55
2022/08/11 13:28:58;;;;;;;3.00;0.90;;;;;;;39.67;18.83;101156.41;1742212;81;27395;-55
2022/08/11 13:31:25;;;;;;;2.10;0.70;;;;;;;39.27;19.14;101167.64;1759151;80;25613;-54
2022/08/11 13:33:52;;;;;;;6.08;0.90;;;;;;;39.13;20.04;101166.31;1742874;80;25677;-55
2022/08/11 13:36:24;;;;;;;3.70;0.90;;;;;;;39.52;19.04;101158.27;1746911;80;25983;-55
2022/08/11 13:38:54;;;;;;;0.90;0.70;;;;;;;39.55;19.38;101159.84;1761851;81;26141;-56
2022/08/11 13:41:37;;;;;;;1.40;0.95;;;;;;;39.98;19.86;101150.48;1755513;81;28283;-56
2022/08/11 13:44:09;;;;;;;2.25;0.70;;;;;;;40.57;18.72;101150.07;1801142;77;25910;-55
2022/08/11 13:46:36;;;;;;;2.37;0.80;;;;;;;40.88;18.69;101142.03;1811077;79;25786;-56
2022/08/11 13:49:07;;;;;;;4.35;0.90;;;;;;;41.18;17.02;101145.55;1806751;78;25795;-56
2022/08/11 13:51:37;;;;;;;0.93;0.83;;;;;;;40.79;18.57;101137.81;1795642;79;25825;-55
2022/08/11 13:54:17;;;;;;;2.85;1.22;;;;;;;41.30;17.99;101135.78;1801879;78;27454;-55
2022/08/11 13:56:51;;;;;;;1.52;0.88;;;;;;;41.54;17.00;101135.22;1805071;79;25683;-56
2022/08/11 13:59:21;;;;;;;1.50;0.60;;;;;;;41.30;17.14;101133.81;1804864;79;25664;-55
2022/08/11 14:01:52;;;;;;;0.80;0.70;;;;;;;40.99;17.87;101137.67;1805490;79;25858;-55
2022/08/11 14:04:32;;;;;;;2.35;0.90;;;;;;;41.46;17.67;101130.41;1805084;78;25768;-56
2022/08/11 14:07:04;;;;;;;3.85;0.70;;;;;;;41.78;17.01;101135.17;1800440;79;27473;-56
2022/08/11 14:09:38;;;;;;;7.50;0.80;;;;;;;41.80;16.54;101134.84;1793878;78;25862;-56
2022/08/11 14:15:28;;;;;;;3.85;0.90;;;;;;;40.69;17.21;101125.45;1739160;80;25803;-56
2022/08/11 14:18:03;;;;;;;0.82;0.70;;;;;;;40.35;17.59;101123.70;1727138;82;25722;-56
2022/08/11 14:23:27;;;;;;;8.45;1.07;;;;;;;40.40;17.55;101113.44;1730678;81;25727;-56
2022/08/11 14:28:41;;;;;;;4.03;0.82;;;;;;;40.30;17.79;101117.42;1735485;81;25799;-56
2022/08/11 14:31:10;;;;;;;6.42;0.75;;;;;;;40.60;17.95;101127.45;1739945;80;25922;-55
2022/08/11 14:33:38;;;;;;;0.60;0.57;;;;;;;40.67;17.52;101123.55;1727596;82;28474;-56
2022/08/11 14:36:10;;;;;;;0.57;0.57;;;;;;;40.73;17.60;101124.20;1728155;81;25792;-56
2022/08/11 14:38:39;;;;;;;2.58;0.75;;;;;;;41.28;17.48;101116.97;1727978;81;25760;-56
2022/08/11 14:49:29;;;;;;;3.95;0.60;;;;;;;40.76;17.17;101108.85;1747566;81;25773;-55
2022/08/11 14:51:58;;;;;;;10.03;0.90;;;;;;;40.56;17.48;101103.90;1730077;81;25509;-56
2022/08/11 14:57:15;;;;;;;3.33;0.60;;;;;;;39.95;17.29;101106.06;1757653;81;25724;-56
2022/08/11 14:59:47;;;;;;;2.75;0.98;;;;;;;40.10;17.53;101105.61;1757971;81;27545;-56
2022/08/11 15:05:04;;;;;;;2.42;0.60;;;;;;;40.53;17.57;101098.32;1757456;81;25730;-56
2022/08/11 15:07:32;;;;;;;0.68;0.50;;;;;;;41.08;17.34;101104.41;1761802;80;26590;-56
2022/08/11 15:10:06;;;;;;;1.57;0.60;;;;;;;41.04;16.65;101101.44;1792712;79;25699;-56
2022/08/11 15:12:36;;;;;;;5.95;0.85;;;;;;;40.48;16.94;101098.50;1806396;78;27456;-56
2022/08/11 15:17:55;;;;;;;2.95;0.70;;;;;;;40.57;16.93;101097.10;1778523;79;25466;-56
2022/08/11 15:26:10;;;;;;;0.60;0.60;;;;;;;40.18;17.28;101088.47;1742845;82;27664;-55
2022/08/11 15:37:28;;;;;;;0.80;0.80;;;;;;;40.38;17.32;101075.13;1799457;79;25738;-56
2022/08/11 15:46:14;;;;;;;7.42;0.90;;;;;;;39.75;17.65;101073.98;1793093;79;25706;-55
2022/08/11 15:48:45;;;;;;;;;;;;;;;39.95;16.89;101070.86;1812615;79;26456;-56
2022/08/11 15:51:29;;;;;;;6.70;1.10;;;;;;;39.84;16.99;101071.77;1809904;79;25490;-56
2022/08/11 15:54:04;;;;;;;0.70;0.70;;;;;;;39.60;17.75;101071.02;1810100;79;27577;-56
2022/08/11 15:56:35;;;;;;;1.98;0.70;;;;;;;39.87;17.69;101068.30;1810041;79;25652;-56
2022/08/11 16:04:41;;;;;;;5.42;1.02;;;;;;;40.38;17.36;101065.86;1809854;79;25809;-56
2022/08/11 16:08:04;;;;;;;4.08;0.90;;;;;;;40.40;18.10;101061.30;1809217;79;27510;-56
2022/08/11 16:10:18;;;;;;;4.55;0.88;;;;;;;40.70;18.10;101065.08;1783523;78;25726;-57
2022/08/11 16:18:39;;;;;;;6.33;1.07;;;;;;;40.41;17.88;101066.59;1788670;80;25704;-56
2022/08/11 16:20:57;;;;;;;6.35;0.70;;;;;;;40.08;17.74;101067.66;1786954;80;27457;-56
2022/08/11 16:23:27;;;;;;;3.33;0.80;;;;;;;39.13;18.44;101072.89;1784052;80;25685;-55
2022/08/11 16:25:56;;;;;;;3.00;0.90;;;;;;;38.26;19.12;101075.91;1791652;79;25771;-56
2022/08/11 16:28:26;;;;;;;3.52;0.90;;;;;;;37.18;20.13;101076.75;1801012;79;26487;-56
2022/08/11 16:30:56;;;;;;;1.40;1.00;;;;;;;36.23;21.05;101081.95;1821192;78;25642;-55
2022/08/11 16:33:24;;;;;;;2.08;1.02;;;;;;;35.56;21.61;101078.88;1833089;78;27588;-56
2022/08/11 16:38:40;;;;;;;0.80;0.70;;;;;;;34.38;23.04;101079.93;1833878;77;25763;-56
2022/08/11 16:41:13;;;;;;;5.08;1.10;;;;;;;33.67;23.89;101087.79;1833910;78;25801;-55
2022/08/11 16:49:31;;;;;;;3.80;1.65;;;;;;;31.68;26.48;101095.98;1801028;79;25655;-55
2022/08/11 16:52:02;;;;;;;2.77;1.10;;;;;;;31.06;27.38;101097.50;1800508;78;25752;-55
2022/08/11 16:54:39;;;;;;;2.17;0.70;;;;;;;30.39;27.99;101099.08;1800688;78;25957;-54
2022/08/11 17:00:13;;;;;;;8.90;1.70;;;;;;;29.33;29.10;101096.38;1800718;79;27496;-55
2022/08/11 17:14:04;;;;;;;2.35;0.98;;;;;;;27.80;31.12;101114.84;1794095;79;27548;-54
2022/08/11 17:16:38;;;;;;;6.12;1.17;;;;;;;27.67;31.41;101108.19;1797340;79;25785;-54
2022/08/11 17:19:22;;;;;;;3.02;1.27;;;;;;;27.51;31.71;101111.17;1799969;79;25780;-54